Pagrindinis puslapis
METAR-TAF:

METAR-TAF

Oro uostai :

Armenija, Kolumbija

platuma: 04-30N, ilguma: 075-43W, Aukštis: 1204 m

Dabartinis oras

Ataskaita buvo paskelbta 1 valandą ir 6 minutes, ne 23:00 UTC
Ramus vėjas
Temperatūra 20°C
Drėgmė 94%
Slėgis 1018 hPa
Matomumas 10 km arba daugiau
Mažai debesys ne aukštis 2000 ft, Liūtiniai kamuoliniai debesys.
Su prošvaistėmis ne aukštis 2300 ft
Liūtis kaimynystėje

METAR: SKAR 222300Z 00000KT 9999 VCSH FEW020CB BKN023 20/19 A3007 RMK CB VCSH/SW

Laikas: 19:06 (00:06 UTC)


TAF: trūkstamas

Orai ataskaitas ir orų prognozės (METAR, TAF).

turimą stotys yra geltonos ir raudonos taškus žemėlapyje.

Perkelti pele per norėdami pamatyti stoties vardą.

Tada spustelėkite, norėdami matyti oro stebėjimo ir prognozės.

Norėdami pakeisti žemėlapį: spustelėkite ant žalios mygtukų su juodo kryžiaus žemyn,; žalią mygtuką su brūkšneliu, jei norite nutolinti; arba žalių rodyklių gretimoms žemėlapius.


METAR-TAF: